sensor_id;sensor_type;location;lat;lon;timestamp;temperature;humidity
3017;DHT22;1518;52.408;13.060;2023-02-26T00:02:44;13.20;65.90
3017;DHT22;1518;52.408;13.060;2023-02-26T00:05:36;12.60;65.20
3017;DHT22;1518;52.408;13.060;2023-02-26T00:08:24;13.10;65.70
3017;DHT22;1518;52.408;13.060;2023-02-26T00:11:12;13.10;65.90
3017;DHT22;1518;52.408;13.060;2023-02-26T00:14:01;13.30;66.00
3017;DHT22;1518;52.408;13.060;2023-02-26T00:16:54;13.30;82.90
3017;DHT22;1518;52.408;13.060;2023-02-26T00:19:45;13.20;65.80
3017;DHT22;1518;52.408;13.060;2023-02-26T00:22:35;13.20;65.70
3017;DHT22;1518;52.408;13.060;2023-02-26T00:25:23;13.20;65.90
3017;DHT22;1518;52.408;13.060;2023-02-26T00:28:12;13.20;65.70
3017;DHT22;1518;52.408;13.060;2023-02-26T00:31:00;13.20;65.70
3017;DHT22;1518;52.408;13.060;2023-02-26T00:33:49;13.20;65.60
3017;DHT22;1518;52.408;13.060;2023-02-26T00:36:45;13.20;65.90
3017;DHT22;1518;52.408;13.060;2023-02-26T00:39:40;13.20;65.90
3017;DHT22;1518;52.408;13.060;2023-02-26T00:42:31;13.20;65.70
3017;DHT22;1518;52.408;13.060;2023-02-26T00:45:20;13.20;66.50
3017;DHT22;1518;52.408;13.060;2023-02-26T00:48:19;13.20;65.80
3017;DHT22;1518;52.408;13.060;2023-02-26T00:51:15;13.30;65.90
3017;DHT22;1518;52.408;13.060;2023-02-26T00:54:09;13.20;65.80
3017;DHT22;1518;52.408;13.060;2023-02-26T00:57:01;13.30;87.20
3017;DHT22;1518;52.408;13.060;2023-02-26T00:59:50;13.30;65.70
3017;DHT22;1518;52.408;13.060;2023-02-26T01:02:39;13.20;65.40
3017;DHT22;1518;52.408;13.060;2023-02-26T01:05:27;13.20;65.10
3017;DHT22;1518;52.408;13.060;2023-02-26T01:08:19;13.20;65.20
3017;DHT22;1518;52.408;13.060;2023-02-26T01:11:08;13.10;65.20
3017;DHT22;1518;52.408;13.060;2023-02-26T01:13:58;13.20;65.20
3017;DHT22;1518;52.408;13.060;2023-02-26T01:16:51;13.90;65.30
3017;DHT22;1518;52.408;13.060;2023-02-26T01:19:46;13.10;65.10
3017;DHT22;1518;52.408;13.060;2023-02-26T01:22:39;13.20;65.20
3017;DHT22;1518;52.408;13.060;2023-02-26T01:25:35;13.10;65.20
3017;DHT22;1518;52.408;13.060;2023-02-26T01:28:25;13.10;65.20
3017;DHT22;1518;52.408;13.060;2023-02-26T01:31:24;13.10;65.20
3017;DHT22;1518;52.408;13.060;2023-02-26T01:34:17;13.10;65.20
3017;DHT22;1518;52.408;13.060;2023-02-26T01:37:17;13.40;87.30
3017;DHT22;1518;52.408;13.060;2023-02-26T01:40:33;13.00;64.70
3017;DHT22;1518;52.408;13.060;2023-02-26T01:43:27;13.10;64.50
3017;DHT22;1518;52.408;13.060;2023-02-26T01:46:22;13.10;64.90
3017;DHT22;1518;52.408;13.060;2023-02-26T01:49:14;13.00;65.10
3017;DHT22;1518;52.408;13.060;2023-02-26T01:52:03;13.20;65.10
3017;DHT22;1518;52.408;13.060;2023-02-26T01:54:51;13.20;65.00
3017;DHT22;1518;52.408;13.060;2023-02-26T01:57:39;13.20;65.00
3017;DHT22;1518;52.408;13.060;2023-02-26T02:00:28;13.40;65.40
3017;DHT22;1518;52.408;13.060;2023-02-26T02:03:18;13.20;65.20
3017;DHT22;1518;52.408;13.060;2023-02-26T02:06:08;13.40;65.30
3017;DHT22;1518;52.408;13.060;2023-02-26T02:08:58;13.30;65.40
3017;DHT22;1518;52.408;13.060;2023-02-26T02:11:57;13.20;64.80
3017;DHT22;1518;52.408;13.060;2023-02-26T02:14:55;13.30;65.00
3017;DHT22;1518;52.408;13.060;2023-02-26T02:17:50;13.60;65.20
3017;DHT22;1518;52.408;13.060;2023-02-26T02:21:13;13.30;64.40
3017;DHT22;1518;52.408;13.060;2023-02-26T02:24:10;13.30;64.60
3017;DHT22;1518;52.408;13.060;2023-02-26T02:27:06;13.30;87.00
3017;DHT22;1518;52.408;13.060;2023-02-26T02:30:20;13.30;64.40
3017;DHT22;1518;52.408;13.060;2023-02-26T02:33:14;13.30;63.90
3017;DHT22;1518;52.408;13.060;2023-02-26T02:36:11;13.40;64.50
3017;DHT22;1518;52.408;13.060;2023-02-26T02:39:05;13.30;64.50
3017;DHT22;1518;52.408;13.060;2023-02-26T02:41:57;13.30;64.40
3017;DHT22;1518;52.408;13.060;2023-02-26T02:44:51;13.20;64.60
3017;DHT22;1518;52.408;13.060;2023-02-26T02:47:42;13.20;64.20
3017;DHT22;1518;52.408;13.060;2023-02-26T02:50:36;13.20;64.20
3017;DHT22;1518;52.408;13.060;2023-02-26T02:53:27;13.10;64.60
3017;DHT22;1518;52.408;13.060;2023-02-26T02:56:22;13.10;64.40
3017;DHT22;1518;52.408;13.060;2023-02-26T02:59:15;13.30;64.50
3017;DHT22;1518;52.408;13.060;2023-02-26T03:02:08;13.20;64.30
3017;DHT22;1518;52.408;13.060;2023-02-26T03:04:57;13.20;64.30
3017;DHT22;1518;52.408;13.060;2023-02-26T03:07:52;13.20;64.50
3017;DHT22;1518;52.408;13.060;2023-02-26T03:10:41;13.10;64.40
3017;DHT22;1518;52.408;13.060;2023-02-26T03:13:30;13.30;64.90
3017;DHT22;1518;52.408;13.060;2023-02-26T03:16:32;13.10;64.70
3017;DHT22;1518;52.408;13.060;2023-02-26T03:19:30;13.20;64.90
3017;DHT22;1518;52.408;13.060;2023-02-26T03:22:26;13.20;64.90
3017;DHT22;1518;52.408;13.060;2023-02-26T03:25:20;13.00;64.60
3017;DHT22;1518;52.408;13.060;2023-02-26T03:28:18;13.20;64.80
3017;DHT22;1518;52.408;13.060;2023-02-26T03:31:11;13.20;64.60
3017;DHT22;1518;52.408;13.060;2023-02-26T03:34:06;13.10;64.40
3017;DHT22;1518;52.408;13.060;2023-02-26T03:36:57;13.30;81.80
3017;DHT22;1518;52.408;13.060;2023-02-26T03:39:51;13.20;64.50
3017;DHT22;1518;52.408;13.060;2023-02-26T03:42:44;13.40;64.50
3017;DHT22;1518;52.408;13.060;2023-02-26T03:45:36;13.20;64.40
3017;DHT22;1518;52.408;13.060;2023-02-26T03:48:27;13.20;64.10
3017;DHT22;1518;52.408;13.060;2023-02-26T03:51:17;13.60;64.30
3017;DHT22;1518;52.408;13.060;2023-02-26T03:54:09;13.20;65.20
3017;DHT22;1518;52.408;13.060;2023-02-26T03:56:57;13.10;85.20
3017;DHT22;1518;52.408;13.060;2023-02-26T03:59:47;13.20;63.80
3017;DHT22;1518;52.408;13.060;2023-02-26T04:02:39;13.50;63.60
3017;DHT22;1518;52.408;13.060;2023-02-26T04:05:31;13.10;63.50
3017;DHT22;1518;52.408;13.060;2023-02-26T04:08:20;13.10;63.40
3017;DHT22;1518;52.408;13.060;2023-02-26T04:11:11;13.00;63.40
3017;DHT22;1518;52.408;13.060;2023-02-26T04:14:03;13.10;63.90
3017;DHT22;1518;52.408;13.060;2023-02-26T04:16:52;13.20;86.40
3017;DHT22;1518;52.408;13.060;2023-02-26T04:19:40;13.00;63.90
3017;DHT22;1518;52.408;13.060;2023-02-26T04:22:28;13.10;64.20
3017;DHT22;1518;52.408;13.060;2023-02-26T04:25:16;13.10;64.10
3017;DHT22;1518;52.408;13.060;2023-02-26T04:28:04;13.10;63.90
3017;DHT22;1518;52.408;13.060;2023-02-26T04:30:52;13.20;64.00
3017;DHT22;1518;52.408;13.060;2023-02-26T04:33:42;13.00;63.60
3017;DHT22;1518;52.408;13.060;2023-02-26T04:36:30;13.20;64.20
3017;DHT22;1518;52.408;13.060;2023-02-26T04:39:18;13.00;64.00
3017;DHT22;1518;52.408;13.060;2023-02-26T04:42:06;13.10;64.20
3017;DHT22;1518;52.408;13.060;2023-02-26T04:44:54;13.20;63.70
3017;DHT22;1518;52.408;13.060;2023-02-26T04:47:42;13.10;64.00
3017;DHT22;1518;52.408;13.060;2023-02-26T04:50:32;13.00;63.80
3017;DHT22;1518;52.408;13.060;2023-02-26T04:53:20;13.10;63.80
3017;DHT22;1518;52.408;13.060;2023-02-26T04:56:08;13.10;64.00
3017;DHT22;1518;52.408;13.060;2023-02-26T04:58:56;13.10;63.90
3017;DHT22;1518;52.408;13.060;2023-02-26T05:01:45;13.20;64.10
3017;DHT22;1518;52.408;13.060;2023-02-26T05:04:33;13.30;64.10
3017;DHT22;1518;52.408;13.060;2023-02-26T05:07:22;13.10;64.20
3017;DHT22;1518;52.408;13.060;2023-02-26T05:10:10;13.00;63.90
3017;DHT22;1518;52.408;13.060;2023-02-26T05:12:59;13.10;63.50
3017;DHT22;1518;52.408;13.060;2023-02-26T05:15:47;13.10;63.70
3017;DHT22;1518;52.408;13.060;2023-02-26T05:18:35;13.00;63.50
3017;DHT22;1518;52.408;13.060;2023-02-26T05:21:23;13.00;63.40
3017;DHT22;1518;52.408;13.060;2023-02-26T05:24:13;13.10;64.00
3017;DHT22;1518;52.408;13.060;2023-02-26T05:27:01;13.10;85.70
3017;DHT22;1518;52.408;13.060;2023-02-26T05:29:49;13.00;63.90
3017;DHT22;1518;52.408;13.060;2023-02-26T05:32:38;12.90;63.60
3017;DHT22;1518;52.408;13.060;2023-02-26T05:35:26;13.30;64.10
3017;DHT22;1518;52.408;13.060;2023-02-26T05:38:14;13.10;64.00
3017;DHT22;1518;52.408;13.060;2023-02-26T05:41:04;13.00;64.00
3017;DHT22;1518;52.408;13.060;2023-02-26T05:43:52;13.10;64.20
3017;DHT22;1518;52.408;13.060;2023-02-26T05:46:40;13.10;64.10
3017;DHT22;1518;52.408;13.060;2023-02-26T05:49:28;13.30;64.50
3017;DHT22;1518;52.408;13.060;2023-02-26T05:52:16;13.20;64.40
3017;DHT22;1518;52.408;13.060;2023-02-26T05:55:05;13.00;64.20
3017;DHT22;1518;52.408;13.060;2023-02-26T05:57:55;13.20;64.00
3017;DHT22;1518;52.408;13.060;2023-02-26T06:00:43;13.20;63.90
3017;DHT22;1518;52.408;13.060;2023-02-26T06:03:31;13.10;63.70
3017;DHT22;1518;52.408;13.060;2023-02-26T06:06:19;13.50;64.00
3017;DHT22;1518;52.408;13.060;2023-02-26T06:09:07;13.10;63.80
3017;DHT22;1518;52.408;13.060;2023-02-26T06:11:56;13.10;63.30
3017;DHT22;1518;52.408;13.060;2023-02-26T06:14:45;13.30;63.40
3017;DHT22;1518;52.408;13.060;2023-02-26T06:17:33;13.30;63.60
3017;DHT22;1518;52.408;13.060;2023-02-26T06:20:21;13.20;63.30
3017;DHT22;1518;52.408;13.060;2023-02-26T06:23:09;13.10;63.30
3017;DHT22;1518;52.408;13.060;2023-02-26T06:25:58;13.60;63.90
3017;DHT22;1518;52.408;13.060;2023-02-26T06:28:46;12.90;63.20
3017;DHT22;1518;52.408;13.060;2023-02-26T06:31:35;13.00;63.20
3017;DHT22;1518;52.408;13.060;2023-02-26T06:34:23;13.00;63.40
3017;DHT22;1518;52.408;13.060;2023-02-26T06:37:11;12.80;63.00
3017;DHT22;1518;52.408;13.060;2023-02-26T06:40:00;13.00;63.10
3017;DHT22;1518;52.408;13.060;2023-02-26T06:42:48;13.40;63.70
3017;DHT22;1518;52.408;13.060;2023-02-26T06:45:36;13.00;63.40
3017;DHT22;1518;52.408;13.060;2023-02-26T06:48:26;13.00;63.60
3017;DHT22;1518;52.408;13.060;2023-02-26T06:51:14;13.20;63.50
3017;DHT22;1518;52.408;13.060;2023-02-26T06:54:02;13.10;63.40
3017;DHT22;1518;52.408;13.060;2023-02-26T06:56:50;13.20;80.50
3017;DHT22;1518;52.408;13.060;2023-02-26T06:59:38;13.10;63.30
3017;DHT22;1518;52.408;13.060;2023-02-26T07:02:27;13.20;63.50
3017;DHT22;1518;52.408;13.060;2023-02-26T07:05:16;13.20;63.60
3017;DHT22;1518;52.408;13.060;2023-02-26T07:08:05;13.30;63.30
3017;DHT22;1518;52.408;13.060;2023-02-26T07:10:53;13.10;62.70
3017;DHT22;1518;52.408;13.060;2023-02-26T07:13:41;13.30;63.40
3017;DHT22;1518;52.408;13.060;2023-02-26T07:16:29;13.30;62.80
3017;DHT22;1518;52.408;13.060;2023-02-26T07:19:17;13.50;63.00
3017;DHT22;1518;52.408;13.060;2023-02-26T07:22:07;13.00;62.60
3017;DHT22;1518;52.408;13.060;2023-02-26T07:24:55;13.10;62.50
3017;DHT22;1518;52.408;13.060;2023-02-26T07:27:43;13.00;63.40
3017;DHT22;1518;52.408;13.060;2023-02-26T07:30:31;13.00;63.20
3017;DHT22;1518;52.408;13.060;2023-02-26T07:33:20;13.20;63.30
3017;DHT22;1518;52.408;13.060;2023-02-26T07:36:08;13.10;62.90
3017;DHT22;1518;52.408;13.060;2023-02-26T07:38:57;13.10;62.30
3017;DHT22;1518;52.408;13.060;2023-02-26T07:41:45;13.00;62.00
3017;DHT22;1518;52.408;13.060;2023-02-26T07:44:34;13.00;61.80
3017;DHT22;1518;52.408;13.060;2023-02-26T07:47:22;13.20;62.30
3017;DHT22;1518;52.408;13.060;2023-02-26T07:50:11;13.00;62.10
3017;DHT22;1518;52.408;13.060;2023-02-26T07:52:59;13.20;62.80
3017;DHT22;1518;52.408;13.060;2023-02-26T07:55:48;13.10;62.80
3017;DHT22;1518;52.408;13.060;2023-02-26T07:58:36;12.80;61.90
3017;DHT22;1518;52.408;13.060;2023-02-26T08:01:24;13.20;63.00
3017;DHT22;1518;52.408;13.060;2023-02-26T08:04:12;13.10;63.40
3017;DHT22;1518;52.408;13.060;2023-02-26T08:07:01;13.20;84.80
3017;DHT22;1518;52.408;13.060;2023-02-26T08:09:49;13.20;63.00
3017;DHT22;1518;52.408;13.060;2023-02-26T08:12:38;13.80;63.60
3017;DHT22;1518;52.408;13.060;2023-02-26T08:15:26;13.30;62.80
3017;DHT22;1518;52.408;13.060;2023-02-26T08:18:14;13.30;62.80
3017;DHT22;1518;52.408;13.060;2023-02-26T08:21:03;13.40;63.70
3017;DHT22;1518;52.408;13.060;2023-02-26T08:23:51;13.30;63.20
3017;DHT22;1518;52.408;13.060;2023-02-26T08:26:40;13.20;63.20
3017;DHT22;1518;52.408;13.060;2023-02-26T08:29:29;13.30;62.80
3017;DHT22;1518;52.408;13.060;2023-02-26T08:32:18;13.30;62.70
3017;DHT22;1518;52.408;13.060;2023-02-26T08:35:09;13.30;62.80
3017;DHT22;1518;52.408;13.060;2023-02-26T08:37:57;13.30;62.80
3017;DHT22;1518;52.408;13.060;2023-02-26T08:40:48;13.30;62.80
3017;DHT22;1518;52.408;13.060;2023-02-26T08:43:36;13.10;62.60
3017;DHT22;1518;52.408;13.060;2023-02-26T08:46:25;13.30;62.90
3017;DHT22;1518;52.408;13.060;2023-02-26T08:49:14;13.20;63.20
3017;DHT22;1518;52.408;13.060;2023-02-26T08:52:02;13.30;62.40
3017;DHT22;1518;52.408;13.060;2023-02-26T08:54:51;13.30;63.40
3017;DHT22;1518;52.408;13.060;2023-02-26T08:57:39;13.20;62.30
3017;DHT22;1518;52.408;13.060;2023-02-26T09:00:27;13.20;62.80
3017;DHT22;1518;52.408;13.060;2023-02-26T09:03:17;13.30;62.40
3017;DHT22;1518;52.408;13.060;2023-02-26T09:06:05;13.40;62.60
3017;DHT22;1518;52.408;13.060;2023-02-26T09:08:53;13.40;63.00
3017;DHT22;1518;52.408;13.060;2023-02-26T09:11:41;13.60;62.80
3017;DHT22;1518;52.408;13.060;2023-02-26T09:14:29;13.40;62.20
3017;DHT22;1518;52.408;13.060;2023-02-26T09:17:17;13.40;62.70
3017;DHT22;1518;52.408;13.060;2023-02-26T09:20:08;13.50;61.60
3017;DHT22;1518;52.408;13.060;2023-02-26T09:22:56;13.50;61.10
3017;DHT22;1518;52.408;13.060;2023-02-26T09:25:44;13.50;62.10
3017;DHT22;1518;52.408;13.060;2023-02-26T09:28:32;13.50;62.20
3017;DHT22;1518;52.408;13.060;2023-02-26T09:31:20;13.50;63.00
3017;DHT22;1518;52.408;13.060;2023-02-26T09:34:08;13.60;62.80
3017;DHT22;1518;52.408;13.060;2023-02-26T09:36:58;13.70;83.50
3017;DHT22;1518;52.408;13.060;2023-02-26T09:39:46;13.60;62.70
3017;DHT22;1518;52.408;13.060;2023-02-26T09:42:45;13.70;62.80
3017;DHT22;1518;52.408;13.060;2023-02-26T09:45:37;13.70;62.40
3017;DHT22;1518;52.408;13.060;2023-02-26T09:48:31;13.70;62.60
3017;DHT22;1518;52.408;13.060;2023-02-26T09:51:21;13.70;62.20
3017;DHT22;1518;52.408;13.060;2023-02-26T09:54:16;13.70;62.20
3017;DHT22;1518;52.408;13.060;2023-02-26T09:57:06;13.60;84.40
3017;DHT22;1518;52.408;13.060;2023-02-26T09:59:59;13.60;62.30
3017;DHT22;1518;52.408;13.060;2023-02-26T10:02:55;13.60;62.70
3017;DHT22;1518;52.408;13.060;2023-02-26T10:06:00;13.50;62.30
3017;DHT22;1518;52.408;13.060;2023-02-26T10:09:19;13.40;62.40
3017;DHT22;1518;52.408;13.060;2023-02-26T10:12:12;13.50;62.10
3017;DHT22;1518;52.408;13.060;2023-02-26T10:15:05;13.50;62.40
3017;DHT22;1518;52.408;13.060;2023-02-26T10:18:07;13.50;62.60
3017;DHT22;1518;52.408;13.060;2023-02-26T10:20:59;13.50;62.50
3017;DHT22;1518;52.408;13.060;2023-02-26T10:23:51;13.50;63.20
3017;DHT22;1518;52.408;13.060;2023-02-26T10:26:45;13.50;62.40
3017;DHT22;1518;52.408;13.060;2023-02-26T10:29:39;13.30;62.80
3017;DHT22;1518;52.408;13.060;2023-02-26T10:32:35;13.50;62.20
3017;DHT22;1518;52.408;13.060;2023-02-26T10:35:28;13.50;62.50
3017;DHT22;1518;52.408;13.060;2023-02-26T10:38:22;13.40;62.40
3017;DHT22;1518;52.408;13.060;2023-02-26T10:41:13;13.50;61.90
3017;DHT22;1518;52.408;13.060;2023-02-26T10:44:11;13.50;62.20
3017;DHT22;1518;52.408;13.060;2023-02-26T10:47:05;13.60;86.00
3017;DHT22;1518;52.408;13.060;2023-02-26T10:49:59;13.40;63.80
3017;DHT22;1518;52.408;13.060;2023-02-26T10:52:49;13.80;64.10
3017;DHT22;1518;52.408;13.060;2023-02-26T10:55:41;13.60;64.60
3017;DHT22;1518;52.408;13.060;2023-02-26T10:58:31;13.60;64.10
3017;DHT22;1518;52.408;13.060;2023-02-26T11:01:22;13.60;63.70
3017;DHT22;1518;52.408;13.060;2023-02-26T11:04:13;13.70;63.80
3017;DHT22;1518;52.408;13.060;2023-02-26T11:07:04;13.80;86.10
3017;DHT22;1518;52.408;13.060;2023-02-26T11:09:53;13.70;63.30
3017;DHT22;1518;52.408;13.060;2023-02-26T11:12:42;13.80;63.80
3017;DHT22;1518;52.408;13.060;2023-02-26T11:15:31;13.80;63.10
3017;DHT22;1518;52.408;13.060;2023-02-26T11:18:24;13.90;63.30
3017;DHT22;1518;52.408;13.060;2023-02-26T11:21:17;13.70;63.30
3017;DHT22;1518;52.408;13.060;2023-02-26T11:24:22;13.70;63.10
3017;DHT22;1518;52.408;13.060;2023-02-26T11:27:15;13.80;63.00
3017;DHT22;1518;52.408;13.060;2023-02-26T11:30:13;13.80;63.30
3017;DHT22;1518;52.408;13.060;2023-02-26T11:33:12;13.70;63.00
3017;DHT22;1518;52.408;13.060;2023-02-26T11:36:07;13.70;63.50
3017;DHT22;1518;52.408;13.060;2023-02-26T11:38:59;13.70;63.50
3017;DHT22;1518;52.408;13.060;2023-02-26T11:41:49;13.80;63.30
3017;DHT22;1518;52.408;13.060;2023-02-26T11:44:40;13.80;61.70
3017;DHT22;1518;52.408;13.060;2023-02-26T11:47:31;13.70;62.20
3017;DHT22;1518;52.408;13.060;2023-02-26T11:50:22;13.90;62.00
3017;DHT22;1518;52.408;13.060;2023-02-26T11:53:18;14.10;62.30
3017;DHT22;1518;52.408;13.060;2023-02-26T11:56:10;13.70;62.80
3017;DHT22;1518;52.408;13.060;2023-02-26T11:59:04;14.20;63.50
3017;DHT22;1518;52.408;13.060;2023-02-26T12:01:52;14.10;61.10
3017;DHT22;1518;52.408;13.060;2023-02-26T12:04:44;13.80;60.30
3017;DHT22;1518;52.408;13.060;2023-02-26T12:07:32;13.90;59.70
3017;DHT22;1518;52.408;13.060;2023-02-26T12:10:26;13.80;60.50
3017;DHT22;1518;52.408;13.060;2023-02-26T12:13:22;13.70;61.50
3017;DHT22;1518;52.408;13.060;2023-02-26T12:16:18;13.90;62.60
3017;DHT22;1518;52.408;13.060;2023-02-26T12:19:15;14.00;62.80
3017;DHT22;1518;52.408;13.060;2023-02-26T12:22:26;13.70;62.00
3017;DHT22;1518;52.408;13.060;2023-02-26T12:25:41;14.00;62.40
3017;DHT22;1518;52.408;13.060;2023-02-26T12:28:42;13.80;62.40
3017;DHT22;1518;52.408;13.060;2023-02-26T12:31:47;13.90;62.30
3017;DHT22;1518;52.408;13.060;2023-02-26T12:38:09;14.00;84.10
3017;DHT22;1518;52.408;13.060;2023-02-26T12:41:21;14.20;62.70
3017;DHT22;1518;52.408;13.060;2023-02-26T12:44:21;14.00;62.20
3017;DHT22;1518;52.408;13.060;2023-02-26T12:50:43;13.90;61.80
3017;DHT22;1518;52.408;13.060;2023-02-26T12:53:56;13.70;62.10
3017;DHT22;1518;52.408;13.060;2023-02-26T12:56:58;13.80;61.90
3017;DHT22;1518;52.408;13.060;2023-02-26T13:00:15;13.90;62.20
3017;DHT22;1518;52.408;13.060;2023-02-26T13:06:57;13.90;62.50
3017;DHT22;1518;52.408;13.060;2023-02-26T13:09:55;13.90;62.80
3017;DHT22;1518;52.408;13.060;2023-02-26T13:12:50;13.80;62.30
3017;DHT22;1518;52.408;13.060;2023-02-26T13:15:51;13.40;61.60
3017;DHT22;1518;52.408;13.060;2023-02-26T13:18:48;13.80;62.30
3017;DHT22;1518;52.408;13.060;2023-02-26T13:21:43;14.00;61.40
3017;DHT22;1518;52.408;13.060;2023-02-26T13:24:34;14.00;61.70
3017;DHT22;1518;52.408;13.060;2023-02-26T13:27:26;13.70;60.80
3017;DHT22;1518;52.408;13.060;2023-02-26T13:30:22;13.80;61.40
3017;DHT22;1518;52.408;13.060;2023-02-26T13:33:16;13.80;60.00
3017;DHT22;1518;52.408;13.060;2023-02-26T13:36:06;13.90;62.30
3017;DHT22;1518;52.408;13.060;2023-02-26T13:39:06;13.80;62.00
3017;DHT22;1518;52.408;13.060;2023-02-26T13:42:00;13.80;62.20
3017;DHT22;1518;52.408;13.060;2023-02-26T13:45:01;13.90;62.10
3017;DHT22;1518;52.408;13.060;2023-02-26T13:48:00;13.80;78.80
3017;DHT22;1518;52.408;13.060;2023-02-26T13:50:56;13.70;61.60
3017;DHT22;1518;52.408;13.060;2023-02-26T13:53:52;13.90;61.40
3017;DHT22;1518;52.408;13.060;2023-02-26T13:56:51;14.10;62.10
3017;DHT22;1518;52.408;13.060;2023-02-26T13:59:53;13.90;61.80
3017;DHT22;1518;52.408;13.060;2023-02-26T14:02:54;13.90;61.50
3017;DHT22;1518;52.408;13.060;2023-02-26T14:06:07;14.00;61.30
3017;DHT22;1518;52.408;13.060;2023-02-26T14:08:57;13.90;61.90
3017;DHT22;1518;52.408;13.060;2023-02-26T14:11:57;13.90;61.60
3017;DHT22;1518;52.408;13.060;2023-02-26T14:15:30;13.90;62.00
3017;DHT22;1518;52.408;13.060;2023-02-26T14:18:34;13.90;62.30
3017;DHT22;1518;52.408;13.060;2023-02-26T14:21:37;14.00;61.90
3017;DHT22;1518;52.408;13.060;2023-02-26T14:24:31;13.80;62.00
3017;DHT22;1518;52.408;13.060;2023-02-26T14:27:31;13.90;62.20
3017;DHT22;1518;52.408;13.060;2023-02-26T14:30:27;14.00;61.70
3017;DHT22;1518;52.408;13.060;2023-02-26T14:33:17;13.80;62.30
3017;DHT22;1518;52.408;13.060;2023-02-26T14:36:15;13.70;62.10
3017;DHT22;1518;52.408;13.060;2023-02-26T14:39:05;13.80;61.60
3017;DHT22;1518;52.408;13.060;2023-02-26T14:41:59;13.90;62.10
3017;DHT22;1518;52.408;13.060;2023-02-26T14:44:50;13.70;61.80
3017;DHT22;1518;52.408;13.060;2023-02-26T14:47:39;13.70;62.00
3017;DHT22;1518;52.408;13.060;2023-02-26T14:50:34;14.00;62.40
3017;DHT22;1518;52.408;13.060;2023-02-26T14:56:46;14.00;61.70
3017;DHT22;1518;52.408;13.060;2023-02-26T14:59:50;14.10;60.90
3017;DHT22;1518;52.408;13.060;2023-02-26T15:02:51;13.90;60.10
3017;DHT22;1518;52.408;13.060;2023-02-26T15:05:53;14.10;61.60
3017;DHT22;1518;52.408;13.060;2023-02-26T15:08:56;14.10;61.20
3017;DHT22;1518;52.408;13.060;2023-02-26T15:11:58;14.20;61.30
3017;DHT22;1518;52.408;13.060;2023-02-26T15:15:14;14.20;62.10
3017;DHT22;1518;52.408;13.060;2023-02-26T15:18:21;14.30;62.00
3017;DHT22;1518;52.408;13.060;2023-02-26T15:21:18;14.10;61.10
3017;DHT22;1518;52.408;13.060;2023-02-26T15:24:11;14.30;61.90
3017;DHT22;1518;52.408;13.060;2023-02-26T15:27:03;14.30;61.60
3017;DHT22;1518;52.408;13.060;2023-02-26T15:29:52;14.20;61.30
3017;DHT22;1518;52.408;13.060;2023-02-26T15:32:40;14.10;61.30
3017;DHT22;1518;52.408;13.060;2023-02-26T15:35:30;14.20;61.60
3017;DHT22;1518;52.408;13.060;2023-02-26T15:38:20;14.10;61.20
3017;DHT22;1518;52.408;13.060;2023-02-26T15:41:10;14.10;61.40
3017;DHT22;1518;52.408;13.060;2023-02-26T15:44:02;14.10;61.60
3017;DHT22;1518;52.408;13.060;2023-02-26T15:46:54;14.00;61.00
3017;DHT22;1518;52.408;13.060;2023-02-26T15:49:45;14.10;60.90
3017;DHT22;1518;52.408;13.060;2023-02-26T15:52:33;14.00;61.10
3017;DHT22;1518;52.408;13.060;2023-02-26T15:55:21;14.00;60.20
3017;DHT22;1518;52.408;13.060;2023-02-26T15:58:18;14.00;60.90
3017;DHT22;1518;52.408;13.060;2023-02-26T16:01:12;13.90;61.10
3017;DHT22;1518;52.408;13.060;2023-02-26T16:04:03;13.90;59.40
3017;DHT22;1518;52.408;13.060;2023-02-26T16:06:53;13.80;59.00
3017;DHT22;1518;52.408;13.060;2023-02-26T16:09:44;13.90;59.90
3017;DHT22;1518;52.408;13.060;2023-02-26T16:12:36;13.60;59.80
3017;DHT22;1518;52.408;13.060;2023-02-26T16:15:30;13.90;59.80
3017;DHT22;1518;52.408;13.060;2023-02-26T16:18:23;13.80;58.90
3017;DHT22;1518;52.408;13.060;2023-02-26T16:21:21;13.90;60.10
3017;DHT22;1518;52.408;13.060;2023-02-26T16:24:14;14.00;60.10
3017;DHT22;1518;52.408;13.060;2023-02-26T16:27:05;13.80;59.80
3017;DHT22;1518;52.408;13.060;2023-02-26T16:29:57;13.90;59.10
3017;DHT22;1518;52.408;13.060;2023-02-26T16:32:49;14.00;58.60
3017;DHT22;1518;52.408;13.060;2023-02-26T16:35:43;13.90;58.90
3017;DHT22;1518;52.408;13.060;2023-02-26T16:38:43;13.90;59.80
3017;DHT22;1518;52.408;13.060;2023-02-26T16:41:33;14.00;59.20
3017;DHT22;1518;52.408;13.060;2023-02-26T16:44:56;13.80;59.30
3017;DHT22;1518;52.408;13.060;2023-02-26T16:47:48;14.00;59.80
3017;DHT22;1518;52.408;13.060;2023-02-26T16:50:37;13.90;60.30
3017;DHT22;1518;52.408;13.060;2023-02-26T16:53:32;13.90;60.00
3017;DHT22;1518;52.408;13.060;2023-02-26T16:56:24;15.10;61.10
3017;DHT22;1518;52.408;13.060;2023-02-26T16:59:16;14.00;60.20
3017;DHT22;1518;52.408;13.060;2023-02-26T17:02:12;14.00;59.40
3017;DHT22;1518;52.408;13.060;2023-02-26T17:05:06;13.90;60.00
3017;DHT22;1518;52.408;13.060;2023-02-26T17:08:00;13.90;81.40
3017;DHT22;1518;52.408;13.060;2023-02-26T17:10:53;13.90;59.80
3017;DHT22;1518;52.408;13.060;2023-02-26T17:13:42;13.90;59.70
3017;DHT22;1518;52.408;13.060;2023-02-26T17:16:30;13.90;59.80
3017;DHT22;1518;52.408;13.060;2023-02-26T17:19:18;13.80;60.60
3017;DHT22;1518;52.408;13.060;2023-02-26T17:22:12;13.80;60.30
3017;DHT22;1518;52.408;13.060;2023-02-26T17:25:01;13.50;60.00
3017;DHT22;1518;52.408;13.060;2023-02-26T17:27:50;13.90;76.70
3017;DHT22;1518;52.408;13.060;2023-02-26T17:30:38;13.80;59.50
3017;DHT22;1518;52.408;13.060;2023-02-26T17:33:26;13.80;59.90
3017;DHT22;1518;52.408;13.060;2023-02-26T17:36:15;13.50;59.30
3017;DHT22;1518;52.408;13.060;2023-02-26T17:39:06;13.80;59.70
3017;DHT22;1518;52.408;13.060;2023-02-26T17:41:54;13.60;59.50
3017;DHT22;1518;52.408;13.060;2023-02-26T17:44:42;13.60;59.30
3017;DHT22;1518;52.408;13.060;2023-02-26T17:47:30;13.70;58.50
3017;DHT22;1518;52.408;13.060;2023-02-26T17:50:30;13.70;59.20
3017;DHT22;1518;52.408;13.060;2023-02-26T17:53:24;13.70;59.00
3017;DHT22;1518;52.408;13.060;2023-02-26T17:56:19;13.50;59.60
3017;DHT22;1518;52.408;13.060;2023-02-26T17:59:10;13.50;59.30
3017;DHT22;1518;52.408;13.060;2023-02-26T18:01:59;13.50;60.20
3017;DHT22;1518;52.408;13.060;2023-02-26T18:04:47;13.50;60.00
3017;DHT22;1518;52.408;13.060;2023-02-26T18:07:35;13.50;59.90
3017;DHT22;1518;52.408;13.060;2023-02-26T18:10:23;13.50;60.00
3017;DHT22;1518;52.408;13.060;2023-02-26T18:13:14;13.70;59.90
3017;DHT22;1518;52.408;13.060;2023-02-26T18:16:02;13.70;59.80
3017;DHT22;1518;52.408;13.060;2023-02-26T18:18:51;13.60;59.90
3017;DHT22;1518;52.408;13.060;2023-02-26T18:21:39;13.60;59.60
3017;DHT22;1518;52.408;13.060;2023-02-26T18:24:27;13.60;59.80
3017;DHT22;1518;52.408;13.060;2023-02-26T18:27:20;13.60;60.00
3017;DHT22;1518;52.408;13.060;2023-02-26T18:30:25;13.60;59.70
3017;DHT22;1518;52.408;13.060;2023-02-26T18:33:14;13.60;59.70
3017;DHT22;1518;52.408;13.060;2023-02-26T18:36:03;13.60;59.40
3017;DHT22;1518;52.408;13.060;2023-02-26T18:38:52;13.50;59.40
3017;DHT22;1518;52.408;13.060;2023-02-26T18:41:40;13.50;59.60